sensor_id;sensor_type;location;lat;lon;timestamp;pressure;altitude;pressure_sealevel;temperature;humidity
20013;BME280;10167;42.852;23.042;2023-05-10T00:01:16;95132.22;;;10.32;100.00
20013;BME280;10167;42.852;23.042;2023-05-10T00:03:45;95122.66;;;10.31;100.00
20013;BME280;10167;42.852;23.042;2023-05-10T00:06:16;95128.53;;;10.21;100.00
20013;BME280;10167;42.852;23.042;2023-05-10T00:08:45;95118.88;;;10.27;100.00
20013;BME280;10167;42.852;23.042;2023-05-10T00:11:14;95124.41;;;10.25;100.00
20013;BME280;10167;42.852;23.042;2023-05-10T00:13:43;95112.06;;;10.19;100.00
20013;BME280;10167;42.852;23.042;2023-05-10T00:16:13;95111.19;;;10.25;100.00
20013;BME280;10167;42.852;23.042;2023-05-10T00:18:42;95114.28;;;10.22;100.00
20013;BME280;10167;42.852;23.042;2023-05-10T00:21:12;95110.66;;;10.16;100.00
20013;BME280;10167;42.852;23.042;2023-05-10T00:23:42;95112.84;;;10.08;100.00
20013;BME280;10167;42.852;23.042;2023-05-10T00:26:12;95110.31;;;10.13;100.00
20013;BME280;10167;42.852;23.042;2023-05-10T00:28:44;95110.31;;;10.13;100.00
20013;BME280;10167;42.852;23.042;2023-05-10T00:31:13;95095.84;;;10.15;100.00
20013;BME280;10167;42.852;23.042;2023-05-10T00:33:43;95101.34;;;10.02;100.00
20013;BME280;10167;42.852;23.042;2023-05-10T00:36:12;95098.22;;;10.05;100.00
20013;BME280;10167;42.852;23.042;2023-05-10T00:38:43;95098.78;;;9.96;100.00
20013;BME280;10167;42.852;23.042;2023-05-10T00:41:12;95103.25;;;9.95;100.00
20013;BME280;10167;42.852;23.042;2023-05-10T00:43:41;95101.78;;;9.99;100.00
20013;BME280;10167;42.852;23.042;2023-05-10T00:46:10;95099.69;;;9.90;100.00
20013;BME280;10167;42.852;23.042;2023-05-10T00:48:40;95094.03;;;9.86;100.00
20013;BME280;10167;42.852;23.042;2023-05-10T00:51:09;95087.88;;;9.92;100.00
20013;BME280;10167;42.852;23.042;2023-05-10T00:53:38;95089.81;;;9.97;100.00
20013;BME280;10167;42.852;23.042;2023-05-10T00:56:09;95094.50;;;9.83;100.00
20013;BME280;10167;42.852;23.042;2023-05-10T00:58:39;95088.72;;;9.74;100.00
20013;BME280;10167;42.852;23.042;2023-05-10T01:01:08;95089.09;;;9.78;100.00
20013;BME280;10167;42.852;23.042;2023-05-10T01:03:39;95089.06;;;9.66;100.00
20013;BME280;10167;42.852;23.042;2023-05-10T01:06:09;95082.78;;;9.79;100.00
20013;BME280;10167;42.852;23.042;2023-05-10T01:08:39;95081.75;;;9.80;100.00
20013;BME280;10167;42.852;23.042;2023-05-10T01:11:13;95088.50;;;9.76;100.00
20013;BME280;10167;42.852;23.042;2023-05-10T01:13:43;95076.34;;;9.87;100.00
20013;BME280;10167;42.852;23.042;2023-05-10T01:16:16;95078.50;;;9.78;100.00
20013;BME280;10167;42.852;23.042;2023-05-10T01:18:48;95079.69;;;9.94;100.00
20013;BME280;10167;42.852;23.042;2023-05-10T01:21:23;95073.69;;;9.87;100.00
20013;BME280;10167;42.852;23.042;2023-05-10T01:24:32;95077.00;;;9.70;100.00
20013;BME280;10167;42.852;23.042;2023-05-10T01:27:23;95078.50;;;9.66;100.00
20013;BME280;10167;42.852;23.042;2023-05-10T01:30:08;95077.44;;;9.56;100.00
20013;BME280;10167;42.852;23.042;2023-05-10T01:32:49;95072.63;;;9.64;100.00
20013;BME280;10167;42.852;23.042;2023-05-10T01:35:29;95074.38;;;9.70;100.00
20013;BME280;10167;42.852;23.042;2023-05-10T01:38:07;95073.09;;;9.73;100.00
20013;BME280;10167;42.852;23.042;2023-05-10T01:40:42;95065.69;;;9.52;100.00
20013;BME280;10167;42.852;23.042;2023-05-10T01:43:19;95063.50;;;9.60;100.00
20013;BME280;10167;42.852;23.042;2023-05-10T01:45:59;95056.53;;;9.66;100.00
20013;BME280;10167;42.852;23.042;2023-05-10T01:48:33;95065.84;;;9.68;100.00
20013;BME280;10167;42.852;23.042;2023-05-10T01:51:04;95066.28;;;9.65;100.00
20013;BME280;10167;42.852;23.042;2023-05-10T01:53:35;95065.72;;;9.63;100.00
20013;BME280;10167;42.852;23.042;2023-05-10T01:56:07;95061.59;;;9.67;100.00
20013;BME280;10167;42.852;23.042;2023-05-10T01:58:39;95063.44;;;9.67;100.00
20013;BME280;10167;42.852;23.042;2023-05-10T02:01:13;95066.88;;;9.67;100.00
20013;BME280;10167;42.852;23.042;2023-05-10T02:03:46;95062.47;;;9.61;100.00
20013;BME280;10167;42.852;23.042;2023-05-10T02:06:16;95069.28;;;9.57;100.00
20013;BME280;10167;42.852;23.042;2023-05-10T02:08:49;95054.44;;;9.56;100.00
20013;BME280;10167;42.852;23.042;2023-05-10T02:11:19;95059.28;;;9.59;100.00
20013;BME280;10167;42.852;23.042;2023-05-10T02:13:51;95062.63;;;9.66;100.00
20013;BME280;10167;42.852;23.042;2023-05-10T02:16:30;95057.56;;;9.65;100.00
20013;BME280;10167;42.852;23.042;2023-05-10T02:19:02;95065.94;;;9.62;100.00
20013;BME280;10167;42.852;23.042;2023-05-10T02:21:33;95069.50;;;9.56;100.00
20013;BME280;10167;42.852;23.042;2023-05-10T02:24:03;95066.72;;;9.51;100.00
20013;BME280;10167;42.852;23.042;2023-05-10T02:26:34;95069.13;;;9.52;100.00
20013;BME280;10167;42.852;23.042;2023-05-10T02:29:05;95059.28;;;9.59;100.00
20013;BME280;10167;42.852;23.042;2023-05-10T02:31:35;95067.91;;;9.66;100.00
20013;BME280;10167;42.852;23.042;2023-05-10T02:34:08;95061.44;;;9.62;100.00
20013;BME280;10167;42.852;23.042;2023-05-10T02:36:40;95056.63;;;9.59;100.00
20013;BME280;10167;42.852;23.042;2023-05-10T02:39:11;95059.72;;;9.56;100.00
20013;BME280;10167;42.852;23.042;2023-05-10T02:41:42;95059.81;;;9.50;100.00
20013;BME280;10167;42.852;23.042;2023-05-10T02:44:14;95056.31;;;9.37;100.00
20013;BME280;10167;42.852;23.042;2023-05-10T02:46:44;95060.25;;;9.35;100.00
20013;BME280;10167;42.852;23.042;2023-05-10T02:49:15;95061.16;;;9.40;100.00
20013;BME280;10167;42.852;23.042;2023-05-10T02:51:56;95056.56;;;9.36;100.00
20013;BME280;10167;42.852;23.042;2023-05-10T02:54:30;95061.81;;;9.24;100.00
20013;BME280;10167;42.852;23.042;2023-05-10T02:57:04;95065.38;;;9.30;100.00
20013;BME280;10167;42.852;23.042;2023-05-10T02:59:33;95060.69;;;9.32;100.00
20013;BME280;10167;42.852;23.042;2023-05-10T03:02:03;95065.38;;;9.30;100.00
20013;BME280;10167;42.852;23.042;2023-05-10T03:04:34;95059.81;;;9.20;100.00
20013;BME280;10167;42.852;23.042;2023-05-10T03:07:03;95067.25;;;9.11;100.00
20013;BME280;10167;42.852;23.042;2023-05-10T03:09:33;95066.53;;;9.04;100.00
20013;BME280;10167;42.852;23.042;2023-05-10T03:12:07;95071.19;;;8.90;100.00
20013;BME280;10167;42.852;23.042;2023-05-10T03:14:45;95067.63;;;8.96;100.00
20013;BME280;10167;42.852;23.042;2023-05-10T03:17:23;95073.56;;;8.92;100.00
20013;BME280;10167;42.852;23.042;2023-05-10T03:19:56;95075.44;;;8.91;100.00
20013;BME280;10167;42.852;23.042;2023-05-10T03:22:29;95070.31;;;8.78;100.00
20013;BME280;10167;42.852;23.042;2023-05-10T03:25:03;95063.41;;;8.59;100.00
20013;BME280;10167;42.852;23.042;2023-05-10T03:27:39;95074.75;;;8.59;100.00
20013;BME280;10167;42.852;23.042;2023-05-10T03:30:11;95084.09;;;8.62;100.00
20013;BME280;10167;42.852;23.042;2023-05-10T03:32:41;95088.19;;;8.58;100.00
20013;BME280;10167;42.852;23.042;2023-05-10T03:35:12;95089.88;;;8.52;100.00
20013;BME280;10167;42.852;23.042;2023-05-10T03:37:42;95094.03;;;8.42;100.00
20013;BME280;10167;42.852;23.042;2023-05-10T03:40:11;95090.91;;;8.26;100.00
20013;BME280;10167;42.852;23.042;2023-05-10T03:42:43;95092.50;;;8.27;100.00
20013;BME280;10167;42.852;23.042;2023-05-10T03:45:12;95088.97;;;8.15;100.00
20013;BME280;10167;42.852;23.042;2023-05-10T03:47:41;95101.84;;;8.05;100.00
20013;BME280;10167;42.852;23.042;2023-05-10T03:50:12;95097.56;;;8.11;100.00
20013;BME280;10167;42.852;23.042;2023-05-10T03:52:42;95099.59;;;8.09;100.00
20013;BME280;10167;42.852;23.042;2023-05-10T03:55:12;95102.22;;;8.09;100.00
20013;BME280;10167;42.852;23.042;2023-05-10T03:57:41;95106.53;;;8.03;100.00
20013;BME280;10167;42.852;23.042;2023-05-10T04:00:11;95110.16;;;8.09;100.00
20013;BME280;10167;42.852;23.042;2023-05-10T04:02:41;95114.44;;;8.03;100.00
20013;BME280;10167;42.852;23.042;2023-05-10T04:05:19;95106.47;;;8.10;100.00
20013;BME280;10167;42.852;23.042;2023-05-10T04:07:48;95106.72;;;8.01;100.00
20013;BME280;10167;42.852;23.042;2023-05-10T04:10:18;95108.59;;;8.01;100.00
20013;BME280;10167;42.852;23.042;2023-05-10T04:12:48;95107.09;;;8.12;100.00
20013;BME280;10167;42.852;23.042;2023-05-10T04:15:17;95115.03;;;8.05;100.00
20013;BME280;10167;42.852;23.042;2023-05-10T04:17:47;95118.19;;;8.14;100.00
20013;BME280;10167;42.852;23.042;2023-05-10T04:20:16;95114.31;;;8.16;100.00
20013;BME280;10167;42.852;23.042;2023-05-10T04:22:47;95117.38;;;8.13;100.00
20013;BME280;10167;42.852;23.042;2023-05-10T04:25:16;95117.78;;;8.17;100.00
20013;BME280;10167;42.852;23.042;2023-05-10T04:27:45;95123.84;;;8.17;100.00
20013;BME280;10167;42.852;23.042;2023-05-10T04:30:15;95122.31;;;8.10;100.00
20013;BME280;10167;42.852;23.042;2023-05-10T04:32:44;95130.47;;;8.01;100.00
20013;BME280;10167;42.852;23.042;2023-05-10T04:35:14;95126.91;;;8.14;100.00
20013;BME280;10167;42.852;23.042;2023-05-10T04:37:43;95130.84;;;8.05;100.00
20013;BME280;10167;42.852;23.042;2023-05-10T04:40:14;95127.00;;;8.08;100.00
20013;BME280;10167;42.852;23.042;2023-05-10T04:42:43;95132.59;;;8.18;100.00
20013;BME280;10167;42.852;23.042;2023-05-10T04:45:13;95131.13;;;8.22;100.00
20013;BME280;10167;42.852;23.042;2023-05-10T04:47:43;95134.00;;;8.20;100.00
20013;BME280;10167;42.852;23.042;2023-05-10T04:50:12;95129.34;;;8.16;100.00
20013;BME280;10167;42.852;23.042;2023-05-10T04:52:42;95137.47;;;8.14;100.00
20013;BME280;10167;42.852;23.042;2023-05-10T04:55:11;95128.03;;;8.25;100.00
20013;BME280;10167;42.852;23.042;2023-05-10T04:57:42;95141.47;;;8.23;100.00
20013;BME280;10167;42.852;23.042;2023-05-10T05:00:13;95128.13;;;8.18;100.00
20013;BME280;10167;42.852;23.042;2023-05-10T05:02:43;95133.09;;;8.26;100.00
20013;BME280;10167;42.852;23.042;2023-05-10T05:05:13;95134.31;;;8.30;100.00
20013;BME280;10167;42.852;23.042;2023-05-10T05:07:42;95134.94;;;8.32;100.00
20013;BME280;10167;42.852;23.042;2023-05-10T05:10:11;95134.78;;;8.21;100.00
20013;BME280;10167;42.852;23.042;2023-05-10T05:12:42;95133.72;;;8.28;100.00
20013;BME280;10167;42.852;23.042;2023-05-10T05:15:11;95129.34;;;8.16;100.00
20013;BME280;10167;42.852;23.042;2023-05-10T05:17:40;95132.69;;;8.29;100.00
20013;BME280;10167;42.852;23.042;2023-05-10T05:20:10;95130.69;;;8.31;100.00
20013;BME280;10167;42.852;23.042;2023-05-10T05:22:40;95137.56;;;8.32;100.00
20013;BME280;10167;42.852;23.042;2023-05-10T05:25:10;95141.63;;;8.28;100.00
20013;BME280;10167;42.852;23.042;2023-05-10T05:27:39;95142.84;;;8.32;100.00
20013;BME280;10167;42.852;23.042;2023-05-10T05:30:11;95145.78;;;8.43;100.00
20013;BME280;10167;42.852;23.042;2023-05-10T05:32:40;95149.66;;;8.40;100.00
20013;BME280;10167;42.852;23.042;2023-05-10T05:35:10;95154.88;;;8.47;100.00
20013;BME280;10167;42.852;23.042;2023-05-10T05:37:39;95153.84;;;8.48;100.00
20013;BME280;10167;42.852;23.042;2023-05-10T05:40:11;95162.06;;;8.40;100.00
20013;BME280;10167;42.852;23.042;2023-05-10T05:42:41;95155.16;;;8.38;100.00
20013;BME280;10167;42.852;23.042;2023-05-10T05:45:11;95144.91;;;8.49;100.00
20013;BME280;10167;42.852;23.042;2023-05-10T05:47:42;95153.31;;;8.39;100.00
20013;BME280;10167;42.852;23.042;2023-05-10T05:50:11;95157.38;;;8.42;100.00
20013;BME280;10167;42.852;23.042;2023-05-10T05:52:40;95159.38;;;8.46;100.00
20013;BME280;10167;42.852;23.042;2023-05-10T05:55:09;95161.25;;;8.39;100.00
20013;BME280;10167;42.852;23.042;2023-05-10T05:57:39;95159.91;;;8.55;100.00
20013;BME280;10167;42.852;23.042;2023-05-10T06:00:08;95160.53;;;8.50;100.00
20013;BME280;10167;42.852;23.042;2023-05-10T06:02:42;95160.53;;;8.50;100.00
20013;BME280;10167;42.852;23.042;2023-05-10T06:05:11;95152.16;;;8.35;100.00
20013;BME280;10167;42.852;23.042;2023-05-10T06:07:41;95164.28;;;8.43;100.00
20013;BME280;10167;42.852;23.042;2023-05-10T06:10:11;95159.31;;;8.53;100.00
20013;BME280;10167;42.852;23.042;2023-05-10T06:12:40;95171.63;;;8.59;100.00
20013;BME280;10167;42.852;23.042;2023-05-10T06:15:10;95166.84;;;8.49;100.00
20013;BME280;10167;42.852;23.042;2023-05-10T06:17:39;95173.94;;;8.49;100.00
20013;BME280;10167;42.852;23.042;2023-05-10T06:20:11;95168.16;;;8.58;100.00
20013;BME280;10167;42.852;23.042;2023-05-10T06:22:41;95174.59;;;8.69;100.00
20013;BME280;10167;42.852;23.042;2023-05-10T06:25:10;95180.44;;;8.71;100.00
20013;BME280;10167;42.852;23.042;2023-05-10T06:27:40;95172.56;;;8.89;100.00
20013;BME280;10167;42.852;23.042;2023-05-10T06:30:10;95172.69;;;8.94;100.00
20013;BME280;10167;42.852;23.042;2023-05-10T06:32:41;95191.56;;;8.98;100.00
20013;BME280;10167;42.852;23.042;2023-05-10T06:35:12;95190.91;;;9.02;100.00
20013;BME280;10167;42.852;23.042;2023-05-10T06:37:42;95186.06;;;9.18;100.00
20013;BME280;10167;42.852;23.042;2023-05-10T06:40:11;95178.13;;;9.18;100.00
20013;BME280;10167;42.852;23.042;2023-05-10T06:42:41;95193.38;;;8.97;100.00
20013;BME280;10167;42.852;23.042;2023-05-10T06:45:10;95180.69;;;8.88;100.00
20013;BME280;10167;42.852;23.042;2023-05-10T06:47:40;95189.94;;;8.97;100.00
20013;BME280;10167;42.852;23.042;2023-05-10T06:50:10;95187.16;;;9.10;100.00
20013;BME280;10167;42.852;23.042;2023-05-10T06:52:41;95181.00;;;9.16;100.00
20013;BME280;10167;42.852;23.042;2023-05-10T06:55:11;95185.94;;;9.13;100.00
20013;BME280;10167;42.852;23.042;2023-05-10T06:57:40;95190.63;;;9.10;100.00
20013;BME280;10167;42.852;23.042;2023-05-10T07:00:10;95184.56;;;9.03;100.00
20013;BME280;10167;42.852;23.042;2023-05-10T07:02:39;95189.94;;;9.15;100.00
20013;BME280;10167;42.852;23.042;2023-05-10T07:05:08;95193.56;;;9.21;100.00
20013;BME280;10167;42.852;23.042;2023-05-10T07:07:37;95202.19;;;9.28;100.00
20013;BME280;10167;42.852;23.042;2023-05-10T07:10:09;95197.94;;;9.27;100.00
20013;BME280;10167;42.852;23.042;2023-05-10T07:12:38;95205.59;;;9.35;100.00
20013;BME280;10167;42.852;23.042;2023-05-10T07:15:08;95201.19;;;9.47;100.00
20013;BME280;10167;42.852;23.042;2023-05-10T07:17:38;95204.16;;;9.51;100.00
20013;BME280;10167;42.852;23.042;2023-05-10T07:20:11;95203.13;;;9.52;100.00
20013;BME280;10167;42.852;23.042;2023-05-10T07:22:40;95205.88;;;9.45;100.00
20013;BME280;10167;42.852;23.042;2023-05-10T07:25:11;95212.94;;;9.33;100.00
20013;BME280;10167;42.852;23.042;2023-05-10T07:27:40;95208.66;;;9.32;100.00
20013;BME280;10167;42.852;23.042;2023-05-10T07:30:10;95202.25;;;9.39;100.00
20013;BME280;10167;42.852;23.042;2023-05-10T07:32:39;95201.66;;;9.56;100.00
20013;BME280;10167;42.852;23.042;2023-05-10T07:35:09;95210.09;;;9.64;100.00
20013;BME280;10167;42.852;23.042;2023-05-10T07:37:38;95216.63;;;9.80;100.00
20013;BME280;10167;42.852;23.042;2023-05-10T07:40:08;95214.19;;;9.78;100.00
20013;BME280;10167;42.852;23.042;2023-05-10T07:42:39;95214.84;;;9.74;100.00
20013;BME280;10167;42.852;23.042;2023-05-10T07:45:09;95217.19;;;9.82;100.00
20013;BME280;10167;42.852;23.042;2023-05-10T07:47:38;95211.50;;;9.97;100.00
20013;BME280;10167;42.852;23.042;2023-05-10T07:50:08;95214.94;;;10.27;100.00
20013;BME280;10167;42.852;23.042;2023-05-10T07:52:37;95220.50;;;10.26;100.00
20013;BME280;10167;42.852;23.042;2023-05-10T07:55:07;95213.28;;;10.44;100.00
20013;BME280;10167;42.852;23.042;2023-05-10T07:57:39;95217.19;;;10.42;100.00
20013;BME280;10167;42.852;23.042;2023-05-10T08:00:11;95216.16;;;10.43;100.00
20013;BME280;10167;42.852;23.042;2023-05-10T08:02:41;95216.06;;;10.73;100.00
20013;BME280;10167;42.852;23.042;2023-05-10T08:05:10;95217.56;;;10.80;100.00
20013;BME280;10167;42.852;23.042;2023-05-10T08:07:40;95215.38;;;10.89;100.00
20013;BME280;10167;42.852;23.042;2023-05-10T08:10:10;95212.28;;;10.69;100.00
20013;BME280;10167;42.852;23.042;2023-05-10T08:12:41;95201.78;;;10.85;100.00
20013;BME280;10167;42.852;23.042;2023-05-10T08:15:10;95206.41;;;10.67;100.00
20013;BME280;10167;42.852;23.042;2023-05-10T08:17:39;95208.09;;;10.73;100.00
20013;BME280;10167;42.852;23.042;2023-05-10T08:20:09;95215.72;;;10.69;100.00
20013;BME280;10167;42.852;23.042;2023-05-10T08:22:40;95224.47;;;10.58;100.00
20013;BME280;10167;42.852;23.042;2023-05-10T08:25:09;95217.56;;;10.57;100.00
20013;BME280;10167;42.852;23.042;2023-05-10T08:27:38;95213.06;;;10.58;100.00
20013;BME280;10167;42.852;23.042;2023-05-10T08:30:09;95215.81;;;10.63;100.00
20013;BME280;10167;42.852;23.042;2023-05-10T08:32:39;95209.47;;;10.52;100.00
20013;BME280;10167;42.852;23.042;2023-05-10T08:35:08;95208.22;;;10.54;100.00
20013;BME280;10167;42.852;23.042;2023-05-10T08:37:37;95207.88;;;10.63;100.00
20013;BME280;10167;42.852;23.042;2023-05-10T08:40:09;95216.31;;;10.60;100.00
20013;BME280;10167;42.852;23.042;2023-05-10T08:42:44;95211.34;;;10.75;100.00
20013;BME280;10167;42.852;23.042;2023-05-10T08:45:18;95211.03;;;10.83;100.00
20013;BME280;10167;42.852;23.042;2023-05-10T08:47:49;95214.78;;;10.64;100.00
20013;BME280;10167;42.852;23.042;2023-05-10T08:50:21;95216.31;;;10.60;100.00
20013;BME280;10167;42.852;23.042;2023-05-10T08:52:53;95210.09;;;10.77;100.00
20013;BME280;10167;42.852;23.042;2023-05-10T08:55:24;95217.22;;;10.65;100.00
20013;BME280;10167;42.852;23.042;2023-05-10T08:57:53;95213.09;;;10.93;100.00
20013;BME280;10167;42.852;23.042;2023-05-10T09:00:24;95222.75;;;10.87;100.00
20013;BME280;10167;42.852;23.042;2023-05-10T09:02:54;95218.25;;;10.87;100.00
20013;BME280;10167;42.852;23.042;2023-05-10T09:05:23;95214.47;;;10.72;100.00
20013;BME280;10167;42.852;23.042;2023-05-10T09:07:52;95211.91;;;10.77;100.00
20013;BME280;10167;42.852;23.042;2023-05-10T09:10:25;95210.31;;;10.87;100.00
20013;BME280;10167;42.852;23.042;2023-05-10T09:12:56;95206.25;;;11.08;100.00
20013;BME280;10167;42.852;23.042;2023-05-10T09:15:27;95212.84;;;11.06;100.00
20013;BME280;10167;42.852;23.042;2023-05-10T09:17:56;95219.06;;;11.23;100.00
20013;BME280;10167;42.852;23.042;2023-05-10T09:20:29;95219.06;;;11.23;100.00
20013;BME280;10167;42.852;23.042;2023-05-10T09:22:58;95220.66;;;11.36;100.00
20013;BME280;10167;42.852;23.042;2023-05-10T09:25:29;95211.09;;;11.23;100.00
20013;BME280;10167;42.852;23.042;2023-05-10T09:28:00;95216.38;;;11.35;100.00
20013;BME280;10167;42.852;23.042;2023-05-10T09:30:31;95213.84;;;11.40;100.00
20013;BME280;10167;42.852;23.042;2023-05-10T09:33:01;95214.06;;;11.50;100.00
20013;BME280;10167;42.852;23.042;2023-05-10T09:35:32;95212.56;;;11.42;100.00
20013;BME280;10167;42.852;23.042;2023-05-10T09:38:03;95205.44;;;11.31;100.00
20013;BME280;10167;42.852;23.042;2023-05-10T09:40:32;95204.31;;;11.15;100.00
20013;BME280;10167;42.852;23.042;2023-05-10T09:43:03;95199.44;;;11.36;100.00
20013;BME280;10167;42.852;23.042;2023-05-10T09:45:35;95207.03;;;11.32;100.00
20013;BME280;10167;42.852;23.042;2023-05-10T09:48:06;95212.69;;;11.36;100.00
20013;BME280;10167;42.852;23.042;2023-05-10T09:50:35;95206.81;;;11.34;100.00
20013;BME280;10167;42.852;23.042;2023-05-10T09:53:04;95204.41;;;11.32;100.00
20013;BME280;10167;42.852;23.042;2023-05-10T09:55:42;95205.09;;;11.39;100.00
20013;BME280;10167;42.852;23.042;2023-05-10T09:58:12;95207.41;;;11.36;100.00
20013;BME280;10167;42.852;23.042;2023-05-10T10:00:45;95198.50;;;11.42;100.00
20013;BME280;10167;42.852;23.042;2023-05-10T10:03:16;95198.63;;;11.35;100.00
20013;BME280;10167;42.852;23.042;2023-05-10T10:05:46;95194.25;;;11.29;100.00
20013;BME280;10167;42.852;23.042;2023-05-10T10:08:17;95204.16;;;11.34;100.00
20013;BME280;10167;42.852;23.042;2023-05-10T10:10:46;95189.66;;;11.36;100.00
20013;BME280;10167;42.852;23.042;2023-05-10T10:13:19;95186.09;;;11.07;100.00
20013;BME280;10167;42.852;23.042;2023-05-10T10:15:50;95191.53;;;11.12;100.00
20013;BME280;10167;42.852;23.042;2023-05-10T10:18:20;95187.72;;;11.08;100.00
20013;BME280;10167;42.852;23.042;2023-05-10T10:20:55;95183.94;;;11.16;100.00
20013;BME280;10167;42.852;23.042;2023-05-10T10:23:25;95181.94;;;11.23;100.00
20013;BME280;10167;42.852;23.042;2023-05-10T10:25:54;95180.44;;;11.27;100.00
20013;BME280;10167;42.852;23.042;2023-05-10T10:28:29;95179.88;;;11.13;100.00
20013;BME280;10167;42.852;23.042;2023-05-10T10:31:15;95185.06;;;11.08;100.00
20013;BME280;10167;42.852;23.042;2023-05-10T10:33:59;95177.03;;;11.03;100.00
20013;BME280;10167;42.852;23.042;2023-05-10T10:36:29;95175.16;;;11.27;100.00
20013;BME280;10167;42.852;23.042;2023-05-10T10:39:01;95178.31;;;11.41;100.00
20013;BME280;10167;42.852;23.042;2023-05-10T10:41:33;95176.22;;;11.54;100.00
20013;BME280;10167;42.852;23.042;2023-05-10T10:44:24;95186.34;;;11.57;100.00
20013;BME280;10167;42.852;23.042;2023-05-10T10:50:05;95179.00;;;11.48;100.00
20013;BME280;10167;42.852;23.042;2023-05-10T10:52:35;95180.63;;;11.49;100.00
20013;BME280;10167;42.852;23.042;2023-05-10T10:55:06;95171.13;;;11.53;100.00
20013;BME280;10167;42.852;23.042;2023-05-10T10:57:49;95171.91;;;11.65;100.00
20013;BME280;10167;42.852;23.042;2023-05-10T11:00:24;95167.63;;;11.76;100.00
20013;BME280;10167;42.852;23.042;2023-05-10T11:02:57;95170.47;;;11.86;100.00
20013;BME280;10167;42.852;23.042;2023-05-10T11:05:44;95171.78;;;11.72;100.00
20013;BME280;10167;42.852;23.042;2023-05-10T11:08:16;95165.31;;;11.79;100.00
20013;BME280;10167;42.852;23.042;2023-05-10T11:10:54;95166.41;;;11.95;100.00
20013;BME280;10167;42.852;23.042;2023-05-10T11:13:32;95180.00;;;11.98;100.00
20013;BME280;10167;42.852;23.042;2023-05-10T11:16:18;95167.41;;;12.06;100.00
20013;BME280;10167;42.852;23.042;2023-05-10T11:18:58;95177.38;;;12.15;100.00
20013;BME280;10167;42.852;23.042;2023-05-10T11:21:29;95178.16;;;11.99;100.00
20013;BME280;10167;42.852;23.042;2023-05-10T11:24:00;95178.63;;;11.96;100.00
20013;BME280;10167;42.852;23.042;2023-05-10T11:26:35;95173.75;;;11.76;100.00
20013;BME280;10167;42.852;23.042;2023-05-10T11:29:05;95173.94;;;11.75;100.00
20013;BME280;10167;42.852;23.042;2023-05-10T11:31:34;95173.94;;;11.86;100.00
20013;BME280;10167;42.852;23.042;2023-05-10T11:34:05;95173.03;;;11.81;100.00
20013;BME280;10167;42.852;23.042;2023-05-10T11:36:35;95173.69;;;11.88;100.00
20013;BME280;10167;42.852;23.042;2023-05-10T11:39:05;95173.06;;;11.97;100.00
20013;BME280;10167;42.852;23.042;2023-05-10T11:41:35;95166.81;;;12.04;100.00
20013;BME280;10167;42.852;23.042;2023-05-10T11:44:04;95165.22;;;12.03;100.00
20013;BME280;10167;42.852;23.042;2023-05-10T11:46:33;95171.31;;;12.03;100.00
20013;BME280;10167;42.852;23.042;2023-05-10T11:49:02;95167.63;;;12.04;100.00
20013;BME280;10167;42.852;23.042;2023-05-10T11:51:36;95163.75;;;11.95;100.00
20013;BME280;10167;42.852;23.042;2023-05-10T11:54:07;95177.72;;;11.90;100.00
20013;BME280;10167;42.852;23.042;2023-05-10T11:56:37;95172.41;;;11.90;100.00
20013;BME280;10167;42.852;23.042;2023-05-10T11:59:07;95164.88;;;11.99;100.00
20013;BME280;10167;42.852;23.042;2023-05-10T12:01:37;95165.78;;;12.05;100.00
20013;BME280;10167;42.852;23.042;2023-05-10T12:04:06;95167.75;;;11.97;100.00
20013;BME280;10167;42.852;23.042;2023-05-10T12:06:40;95166.47;;;12.00;100.00
20013;BME280;10167;42.852;23.042;2023-05-10T12:09:09;95182.00;;;12.08;100.00
20013;BME280;10167;42.852;23.042;2023-05-10T12:11:40;95169.94;;;12.00;100.00
20013;BME280;10167;42.852;23.042;2023-05-10T12:14:11;95171.56;;;12.02;100.00
20013;BME280;10167;42.852;23.042;2023-05-10T12:16:40;95171.97;;;12.10;100.00
20013;BME280;10167;42.852;23.042;2023-05-10T12:19:09;95171.66;;;12.07;100.00
20013;BME280;10167;42.852;23.042;2023-05-10T12:21:40;95184.59;;;12.03;100.00
20013;BME280;10167;42.852;23.042;2023-05-10T12:24:09;95170.94;;;12.11;100.00
20013;BME280;10167;42.852;23.042;2023-05-10T12:26:39;95168.75;;;12.08;100.00
20013;BME280;10167;42.852;23.042;2023-05-10T12:29:25;95166.81;;;12.04;100.00
20013;BME280;10167;42.852;23.042;2023-05-10T12:32:11;95165.56;;;12.06;100.00
20013;BME280;10167;42.852;23.042;2023-05-10T12:34:41;95163.84;;;12.00;100.00
20013;BME280;10167;42.852;23.042;2023-05-10T12:37:12;95157.53;;;12.18;100.00
20013;BME280;10167;42.852;23.042;2023-05-10T12:39:42;95158.50;;;12.28;100.00
20013;BME280;10167;42.852;23.042;2023-05-10T12:42:12;95161.22;;;12.17;100.00
20013;BME280;10167;42.852;23.042;2023-05-10T12:44:41;95154.28;;;12.16;100.00
20013;BME280;10167;42.852;23.042;2023-05-10T12:47:10;95157.66;;;12.11;100.00
20013;BME280;10167;42.852;23.042;2023-05-10T12:49:39;95158.00;;;12.15;100.00
20013;BME280;10167;42.852;23.042;2023-05-10T12:52:09;95151.69;;;12.04;100.00
20013;BME280;10167;42.852;23.042;2023-05-10T12:54:44;95138.84;;;11.96;100.00
20013;BME280;10167;42.852;23.042;2023-05-10T12:57:15;95136.53;;;11.88;100.00
20013;BME280;10167;42.852;23.042;2023-05-10T12:59:46;95141.22;;;11.97;100.00
20013;BME280;10167;42.852;23.042;2023-05-10T13:02:16;95131.75;;;12.02;100.00
20013;BME280;10167;42.852;23.042;2023-05-10T13:04:47;95132.72;;;11.95;100.00
20013;BME280;10167;42.852;23.042;2023-05-10T13:07:18;95132.97;;;12.11;100.00
20013;BME280;10167;42.852;23.042;2023-05-10T13:09:49;95122.34;;;11.94;100.00